createdAt,value
2018-03-23T00:00:58.686Z,2.40
2018-03-23T00:03:26.827Z,2.36
2018-03-23T00:05:55.029Z,2.34
2018-03-23T00:08:23.143Z,2.33
2018-03-23T00:10:51.266Z,2.34
2018-03-23T00:13:19.408Z,2.35
2018-03-23T00:15:47.516Z,2.41
2018-03-23T00:18:15.698Z,2.41
2018-03-23T00:20:43.806Z,2.34
2018-03-23T00:23:11.934Z,2.30
2018-03-23T00:25:40.083Z,2.31
2018-03-23T00:28:08.260Z,2.28
2018-03-23T00:30:36.401Z,2.32
2018-03-23T00:33:04.519Z,2.47
2018-03-23T00:35:32.785Z,2.48
2018-03-23T00:38:00.901Z,2.43
2018-03-23T00:40:29.044Z,2.39
2018-03-23T00:42:57.164Z,2.31
2018-03-23T00:45:25.290Z,2.35
2018-03-23T00:47:53.430Z,2.28
2018-03-23T00:50:21.572Z,2.31
2018-03-23T00:52:49.688Z,2.27
2018-03-23T00:55:17.816Z,2.24
2018-03-23T00:57:45.949Z,2.24
2018-03-23T01:00:14.126Z,2.26
2018-03-23T01:02:42.268Z,2.22
2018-03-23T01:05:10.390Z,2.29
2018-03-23T01:07:38.507Z,2.25
2018-03-23T01:10:06.716Z,2.24
2018-03-23T01:12:34.846Z,2.23
2018-03-23T01:15:03.886Z,2.22
2018-03-23T01:17:32.077Z,2.25
2018-03-23T01:20:00.187Z,2.35
2018-03-23T01:22:28.319Z,2.38
2018-03-23T01:24:56.449Z,2.39
2018-03-23T01:27:24.634Z,2.39
2018-03-23T01:29:52.784Z,2.36
2018-03-23T01:32:20.899Z,2.33
2018-03-23T01:34:49.029Z,2.31
2018-03-23T01:37:17.149Z,2.28
2018-03-23T01:39:45.264Z,2.27
2018-03-23T01:42:13.386Z,2.25
2018-03-23T01:44:41.517Z,2.28
2018-03-23T01:47:09.635Z,2.27
2018-03-23T01:49:37.761Z,2.25
2018-03-23T01:52:05.886Z,2.24
2018-03-23T01:54:34.020Z,2.21
2018-03-23T01:57:02.151Z,2.25
2018-03-23T01:59:30.370Z,2.33
2018-03-23T02:01:58.594Z,2.33
2018-03-23T02:04:26.744Z,2.28
2018-03-23T02:06:54.983Z,2.30
2018-03-23T02:09:23.100Z,2.26
2018-03-23T02:11:51.228Z,2.33
2018-03-23T02:14:19.345Z,2.44
2018-03-23T02:16:47.478Z,2.48
2018-03-23T02:19:15.592Z,2.37
2018-03-23T02:21:43.729Z,2.32
2018-03-23T02:24:11.882Z,2.29
2018-03-23T02:26:39.983Z,2.31
2018-03-23T02:29:08.116Z,2.28
2018-03-23T02:31:36.701Z,2.42
2018-03-23T02:34:04.816Z,2.37
2018-03-23T02:36:33.283Z,2.29
2018-03-23T02:39:01.412Z,2.28
2018-03-23T02:41:29.519Z,2.26
2018-03-23T02:43:57.654Z,2.34
2018-03-23T02:46:25.773Z,2.42
2018-03-23T02:48:53.897Z,2.44
2018-03-23T02:51:22.072Z,2.47
2018-03-23T02:53:50.191Z,2.36
2018-03-23T02:56:18.318Z,2.34
2018-03-23T02:58:46.438Z,2.33
2018-03-23T03:01:14.568Z,2.40
2018-03-23T03:03:42.709Z,2.39
2018-03-23T03:06:10.868Z,2.48
2018-03-23T03:08:38.994Z,2.56
2018-03-23T03:11:07.151Z,2.57
2018-03-23T03:13:35.279Z,2.57
2018-03-23T03:16:03.408Z,2.60
2018-03-23T03:18:31.530Z,2.57
2018-03-23T03:20:59.650Z,2.62
2018-03-23T03:23:27.788Z,2.65
2018-03-23T03:25:55.914Z,2.56
2018-03-23T03:28:24.033Z,2.55
2018-03-23T03:30:52.169Z,2.56
2018-03-23T03:33:20.338Z,2.62
2018-03-23T03:35:48.519Z,2.66
2018-03-23T03:38:16.647Z,2.54
2018-03-23T03:40:44.769Z,2.48
2018-03-23T03:43:12.909Z,2.42
2018-03-23T03:45:41.034Z,2.48
2018-03-23T03:48:09.184Z,2.49
2018-03-23T03:50:37.322Z,2.46
2018-03-23T03:53:05.478Z,2.52
2018-03-23T03:55:33.612Z,2.45
2018-03-23T03:58:01.731Z,2.48
2018-03-23T04:00:29.852Z,2.52
2018-03-23T04:02:57.990Z,2.50
2018-03-23T04:05:26.113Z,2.42
2018-03-23T04:07:54.243Z,2.39
2018-03-23T04:10:22.352Z,2.34
2018-03-23T04:12:50.554Z,2.43
2018-03-23T04:15:18.682Z,2.37
2018-03-23T04:17:46.820Z,2.39
2018-03-23T04:23:36.168Z,2.39
2018-03-23T04:26:04.305Z,2.38
2018-03-23T04:29:03.015Z,2.38
2018-03-23T04:31:38.365Z,2.34
2018-03-23T04:34:21.763Z,2.37
2018-03-23T04:36:49.893Z,2.34
2018-03-23T04:39:48.726Z,2.36
2018-03-23T04:42:23.929Z,2.35
2018-03-23T04:44:52.074Z,2.31
2018-03-23T04:47:20.278Z,2.35
2018-03-23T04:49:48.386Z,2.27
2018-03-23T04:52:16.540Z,2.32
2018-03-23T04:54:44.732Z,2.28
2018-03-23T04:57:12.864Z,2.25
2018-03-23T04:59:41.021Z,2.28
2018-03-23T05:02:09.151Z,2.28
2018-03-23T05:04:37.291Z,2.33
2018-03-23T05:07:05.515Z,2.34
2018-03-23T05:09:33.638Z,2.29
2018-03-23T05:12:01.784Z,2.26
2018-03-23T05:14:29.904Z,2.30
2018-03-23T05:16:58.094Z,2.34
2018-03-23T05:19:26.226Z,2.34
2018-03-23T05:21:54.357Z,2.31
2018-03-23T05:24:22.480Z,2.32
2018-03-23T05:26:50.622Z,2.39
2018-03-23T05:29:18.745Z,2.44
2018-03-23T05:31:46.915Z,2.37
2018-03-23T05:34:15.036Z,2.34
2018-03-23T05:36:43.188Z,2.31
2018-03-23T05:39:11.309Z,2.38
2018-03-23T05:41:39.441Z,2.38
2018-03-23T05:44:07.558Z,2.35
2018-03-23T05:46:36.111Z,2.44
2018-03-23T05:49:04.234Z,2.46
2018-03-23T05:51:32.366Z,2.58
2018-03-23T05:54:00.473Z,2.53
2018-03-23T05:56:28.621Z,2.53
2018-03-23T05:58:56.764Z,2.53
2018-03-23T06:01:24.940Z,2.48
2018-03-23T06:03:53.056Z,2.48
2018-03-23T06:06:21.168Z,2.43
2018-03-23T06:08:49.312Z,2.41
2018-03-23T06:11:17.450Z,2.39
2018-03-23T06:13:45.587Z,2.46
2018-03-23T06:16:13.709Z,2.48
2018-03-23T06:18:41.837Z,2.55
2018-03-23T06:21:10.825Z,2.57
2018-03-23T06:23:38.937Z,2.64
2018-03-23T06:26:07.063Z,2.62
2018-03-23T06:28:35.207Z,2.65
2018-03-23T06:31:03.319Z,2.65
2018-03-23T06:33:31.458Z,2.72
2018-03-23T06:35:59.636Z,2.78
2018-03-23T06:38:27.770Z,2.75
2018-03-23T06:40:55.980Z,2.79
2018-03-23T06:43:24.110Z,2.88
2018-03-23T06:45:52.237Z,2.86
2018-03-23T06:48:20.376Z,2.92
2018-03-23T06:50:48.499Z,2.95
2018-03-23T06:53:16.672Z,2.91
2018-03-23T06:55:44.936Z,2.99
2018-03-23T06:58:13.098Z,3.02
2018-03-23T07:00:41.226Z,3.05
2018-03-23T07:03:09.388Z,3.08
2018-03-23T07:05:37.518Z,3.03
2018-03-23T07:08:05.638Z,3.12
2018-03-23T07:10:33.785Z,3.11
2018-03-23T07:13:01.893Z,3.15
2018-03-23T07:15:30.030Z,3.17
2018-03-23T07:17:58.193Z,3.22
2018-03-23T07:20:26.372Z,3.32
2018-03-23T07:22:54.488Z,3.33
2018-03-23T07:25:22.680Z,3.46
2018-03-23T07:27:51.280Z,3.46
2018-03-23T07:30:19.416Z,3.42
2018-03-23T07:32:47.540Z,3.52
2018-03-23T07:35:15.676Z,3.53
2018-03-23T07:37:43.807Z,3.46
2018-03-23T07:40:11.935Z,3.42
2018-03-23T07:42:40.499Z,3.47
2018-03-23T07:45:08.632Z,3.46
2018-03-23T07:47:36.763Z,3.54
2018-03-23T07:50:04.896Z,3.51
2018-03-23T07:52:33.058Z,3.48
2018-03-23T07:55:01.195Z,3.48
2018-03-23T07:57:29.340Z,3.51
2018-03-23T07:59:57.486Z,3.50
2018-03-23T08:02:25.651Z,3.52
2018-03-23T08:04:53.787Z,3.51
2018-03-23T08:07:21.942Z,3.60
2018-03-23T08:09:50.924Z,3.61
2018-03-23T08:12:19.046Z,3.62
2018-03-23T08:14:47.200Z,3.68
2018-03-23T08:17:15.604Z,3.61
2018-03-23T08:19:43.741Z,3.59
2018-03-23T08:22:11.877Z,3.63
2018-03-23T08:24:40.013Z,3.59
2018-03-23T08:27:08.193Z,3.62
2018-03-23T08:29:36.327Z,3.69
2018-03-23T08:32:04.471Z,3.77
2018-03-23T08:34:32.583Z,3.79
2018-03-23T08:37:00.704Z,3.80
2018-03-23T08:39:28.824Z,3.89
2018-03-23T08:41:56.960Z,3.88
2018-03-23T08:44:25.148Z,3.87
2018-03-23T08:46:53.278Z,3.88
2018-03-23T08:49:21.397Z,3.94
2018-03-23T08:51:49.515Z,3.96
2018-03-23T08:54:17.674Z,3.96
2018-03-23T08:56:45.779Z,3.95
2018-03-23T08:59:13.952Z,4.02
2018-03-23T09:01:42.068Z,3.99
2018-03-23T09:04:10.318Z,4.03
2018-03-23T09:06:38.498Z,4.02
2018-03-23T09:09:06.748Z,4.10
2018-03-23T09:11:34.886Z,4.10
2018-03-23T09:14:02.999Z,4.12
2018-03-23T09:16:31.113Z,4.09
2018-03-23T09:18:59.227Z,4.20
2018-03-23T09:21:27.347Z,4.25
2018-03-23T09:23:55.475Z,4.32
2018-03-23T09:26:23.592Z,4.38
2018-03-23T09:28:51.715Z,4.52
2018-03-23T09:31:19.840Z,4.53
2018-03-23T09:33:47.972Z,4.63
2018-03-23T09:36:16.092Z,4.71
2018-03-23T09:38:44.202Z,4.72
2018-03-23T09:41:12.385Z,4.82
2018-03-23T09:43:40.507Z,4.91
2018-03-23T09:46:08.643Z,5.02
2018-03-23T09:48:36.802Z,5.16
2018-03-23T09:51:04.903Z,5.26
2018-03-23T09:53:33.047Z,5.41
2018-03-23T09:56:01.176Z,5.57
2018-03-23T09:58:29.312Z,5.71
2018-03-23T10:00:57.440Z,5.63
2018-03-23T10:03:25.570Z,5.75
2018-03-23T10:05:53.710Z,5.66
2018-03-23T10:08:21.838Z,5.60
2018-03-23T10:10:49.971Z,5.61
2018-03-23T10:13:18.163Z,5.60
2018-03-23T10:15:46.335Z,5.52
2018-03-23T10:18:14.451Z,5.46
2018-03-23T10:20:42.672Z,5.37
2018-03-23T10:23:10.747Z,5.35
2018-03-23T10:25:38.860Z,5.37
2018-03-23T10:28:06.990Z,5.35
2018-03-23T10:30:35.144Z,5.43
2018-03-23T10:33:03.266Z,5.44
2018-03-23T10:35:31.432Z,5.52
2018-03-23T10:37:59.519Z,5.64
2018-03-23T10:40:27.635Z,5.66
2018-03-23T10:42:55.754Z,5.65
2018-03-23T10:45:23.875Z,5.80
2018-03-23T10:47:52.004Z,5.78
2018-03-23T10:50:20.122Z,5.83
2018-03-23T10:52:48.264Z,5.79
2018-03-23T10:55:16.453Z,5.81
2018-03-23T10:57:44.561Z,5.94
2018-03-23T11:00:13.558Z,5.99
2018-03-23T11:02:56.729Z,6.10
2018-03-23T11:05:24.837Z,6.15
2018-03-23T11:07:53.066Z,6.14
2018-03-23T11:10:21.193Z,6.18
2018-03-23T11:12:49.351Z,6.25
2018-03-23T11:15:17.488Z,6.39
2018-03-23T11:17:45.679Z,6.40
2018-03-23T11:20:13.890Z,6.36
2018-03-23T11:22:42.011Z,6.34
2018-03-23T11:25:10.207Z,6.19
2018-03-23T11:27:38.353Z,6.10
2018-03-23T11:30:06.527Z,6.02
2018-03-23T11:32:34.708Z,5.89
2018-03-23T11:35:02.872Z,5.81
2018-03-23T11:37:31.024Z,5.78
2018-03-23T11:39:59.152Z,5.76
2018-03-23T11:42:27.292Z,5.75
2018-03-23T11:44:55.426Z,5.73
2018-03-23T11:47:23.566Z,5.73
2018-03-23T11:49:51.715Z,5.60
2018-03-23T11:52:19.833Z,5.54
2018-03-23T11:54:47.987Z,5.55
2018-03-23T11:57:16.875Z,5.51
2018-03-23T11:59:45.046Z,5.56
2018-03-23T12:02:13.186Z,5.59
2018-03-23T12:04:41.372Z,5.49
2018-03-23T12:07:09.508Z,5.57
2018-03-23T12:09:37.685Z,5.53
2018-03-23T12:12:05.879Z,5.56
2018-03-23T12:14:34.043Z,5.51
2018-03-23T12:17:02.216Z,5.60
2018-03-23T12:19:31.163Z,5.55
2018-03-23T12:21:59.343Z,5.61
2018-03-23T12:24:27.471Z,5.66
2018-03-23T12:26:56.254Z,5.69
2018-03-23T12:29:25.309Z,5.72
2018-03-23T12:31:53.542Z,5.79
2018-03-23T12:34:21.671Z,5.89
2018-03-23T12:36:49.838Z,5.94
2018-03-23T12:39:18.023Z,6.06
2018-03-23T12:41:46.163Z,6.09
2018-03-23T12:44:14.336Z,6.09
2018-03-23T12:46:42.478Z,6.18
2018-03-23T12:49:11.153Z,5.93
2018-03-23T12:51:39.669Z,6.26
2018-03-23T12:54:08.220Z,6.26
2018-03-23T12:56:36.386Z,6.38
2018-03-23T12:59:05.428Z,6.47
2018-03-23T13:01:38.184Z,6.58
2018-03-23T13:04:06.894Z,6.70
2018-03-23T13:06:35.010Z,6.76
2018-03-23T13:09:03.166Z,6.83
2018-03-23T13:11:31.286Z,6.79
2018-03-23T13:13:59.786Z,6.80
2018-03-23T13:16:27.915Z,6.91
2018-03-23T13:18:59.347Z,6.61
2018-03-23T13:21:28.275Z,6.62
2018-03-23T13:24:03.419Z,6.50
2018-03-23T13:26:31.573Z,6.53
2018-03-23T13:28:59.699Z,6.52
2018-03-23T13:31:27.893Z,6.49
2018-03-23T13:33:56.024Z,6.40
2018-03-23T13:36:24.232Z,6.40
2018-03-23T13:38:52.413Z,6.41
2018-03-23T13:41:20.530Z,6.34
2018-03-23T13:43:48.732Z,6.29
2018-03-23T13:46:17.475Z,6.25
2018-03-23T13:48:45.831Z,6.12
2018-03-23T13:51:13.971Z,6.19
2018-03-23T13:53:42.153Z,6.07
2018-03-23T13:56:10.321Z,6.01
2018-03-23T13:58:43.967Z,5.97
2018-03-23T14:01:17.673Z,5.91
2018-03-23T14:03:45.843Z,5.87
2018-03-23T14:06:13.987Z,5.80
2018-03-23T14:08:42.136Z,5.89
2018-03-23T14:11:10.292Z,5.83
2018-03-23T14:13:38.427Z,5.91
2018-03-23T14:16:06.678Z,5.86
2018-03-23T14:18:34.848Z,5.79
2018-03-23T14:21:02.957Z,5.77
2018-03-23T14:23:31.193Z,5.71
2018-03-23T14:25:59.340Z,5.65
2018-03-23T14:28:27.485Z,5.82
2018-03-23T14:30:55.642Z,5.75
2018-03-23T14:33:23.828Z,5.66
2018-03-23T14:35:52.249Z,5.63
2018-03-23T14:38:20.438Z,5.69
2018-03-23T14:40:48.557Z,5.60
2018-03-23T14:43:16.703Z,5.69
2018-03-23T14:45:44.843Z,5.63
2018-03-23T14:48:12.977Z,5.59
2018-03-23T14:50:42.132Z,5.59
2018-03-23T14:53:10.270Z,5.60
2018-03-23T14:55:38.944Z,5.64
2018-03-23T14:58:07.573Z,5.64
2018-03-23T15:00:35.700Z,5.58
2018-03-23T15:03:03.827Z,5.68
2018-03-23T15:05:32.037Z,5.70
2018-03-23T15:08:01.234Z,5.75
2018-03-23T15:10:29.386Z,5.70
2018-03-23T15:12:57.520Z,5.65
2018-03-23T15:15:25.696Z,5.65
2018-03-23T15:17:53.906Z,5.62
2018-03-23T15:20:22.046Z,5.59
2018-03-23T15:22:50.200Z,5.57
2018-03-23T15:25:18.363Z,5.54
2018-03-23T15:27:46.499Z,5.55
2018-03-23T15:30:14.635Z,5.51
2018-03-23T15:32:42.775Z,5.50
2018-03-23T15:35:10.956Z,5.51
2018-03-23T15:37:39.093Z,5.41
2018-03-23T15:40:07.263Z,5.48
2018-03-23T15:42:35.393Z,5.41
2018-03-23T15:45:03.562Z,5.41
2018-03-23T15:47:31.685Z,5.35
2018-03-23T15:49:59.831Z,5.37
2018-03-23T15:52:28.007Z,5.35
2018-03-23T15:54:56.141Z,5.26
2018-03-23T15:57:24.302Z,5.18
2018-03-23T15:59:52.425Z,5.19
2018-03-23T16:02:20.567Z,5.27
2018-03-23T16:04:50.761Z,5.21
2018-03-23T16:07:18.899Z,5.17
2018-03-23T16:09:47.132Z,5.19
2018-03-23T16:12:15.328Z,5.13
2018-03-23T16:14:43.546Z,5.13
2018-03-23T16:17:11.716Z,5.13
2018-03-23T16:19:39.823Z,5.15
2018-03-23T16:22:08.002Z,5.14
2018-03-23T16:24:38.127Z,5.17
2018-03-23T16:27:06.470Z,5.18
2018-03-23T16:29:34.634Z,5.15
2018-03-23T16:32:02.824Z,5.05
2018-03-23T16:34:30.927Z,5.03
2018-03-23T16:36:59.095Z,5.08
2018-03-23T16:39:27.269Z,5.03
2018-03-23T16:41:56.599Z,5.01
2018-03-23T16:44:24.742Z,4.94
2018-03-23T16:46:52.884Z,4.89
2018-03-23T16:49:21.074Z,4.81
2018-03-23T16:51:49.188Z,4.82
2018-03-23T16:54:17.344Z,4.80
2018-03-23T16:56:45.488Z,4.73
2018-03-23T16:59:13.663Z,4.72
2018-03-23T17:01:42.617Z,4.67
2018-03-23T17:04:10.771Z,4.63
2018-03-23T17:06:39.023Z,4.59
2018-03-23T17:09:07.908Z,4.61
2018-03-23T17:11:36.026Z,4.56
2018-03-23T17:14:04.192Z,4.52
2018-03-23T17:16:32.324Z,4.46
2018-03-23T17:19:00.472Z,4.44
2018-03-23T17:21:28.595Z,4.45
2018-03-23T17:23:56.751Z,4.41
2018-03-23T17:26:25.711Z,4.45
2018-03-23T17:28:54.036Z,4.46
2018-03-23T17:31:22.188Z,4.38
2018-03-23T17:33:50.325Z,4.42
2018-03-23T17:36:18.560Z,4.39
2018-03-23T17:38:46.697Z,4.33
2018-03-23T17:41:19.483Z,4.35
2018-03-23T17:43:47.854Z,4.28
2018-03-23T17:46:15.992Z,4.26
2018-03-23T17:48:44.105Z,4.26
2018-03-23T17:51:12.268Z,4.23
2018-03-23T17:53:40.430Z,4.25
2018-03-23T17:56:08.548Z,4.26
2018-03-23T17:58:36.688Z,4.25
2018-03-23T18:01:04.838Z,4.26
2018-03-23T18:03:32.983Z,4.25
2018-03-23T18:06:01.123Z,4.33
2018-03-23T18:08:29.243Z,4.32
2018-03-23T18:10:57.372Z,4.29
2018-03-23T18:13:25.632Z,4.23
2018-03-23T18:15:53.760Z,4.28
2018-03-23T18:18:21.908Z,4.24
2018-03-23T18:20:50.024Z,4.26
2018-03-23T18:23:18.217Z,4.26
2018-03-23T18:25:46.451Z,4.25
2018-03-23T18:28:14.562Z,4.21
2018-03-23T18:30:42.696Z,4.20
2018-03-23T18:33:10.823Z,4.24
2018-03-23T18:35:38.939Z,4.21
2018-03-23T18:38:07.672Z,4.18
2018-03-23T18:40:35.817Z,4.15
2018-03-23T18:43:03.988Z,4.12
2018-03-23T18:45:32.159Z,4.14
2018-03-23T18:48:00.269Z,4.15
2018-03-23T18:50:28.399Z,4.13
2018-03-23T18:52:56.550Z,4.13
2018-03-23T18:55:24.727Z,4.10
2018-03-23T18:57:52.931Z,4.08
2018-03-23T19:00:21.069Z,4.12
2018-03-23T19:02:49.196Z,4.12
2018-03-23T19:05:17.340Z,4.10
2018-03-23T19:07:45.596Z,4.08
2018-03-23T19:10:13.750Z,4.08
2018-03-23T19:12:41.908Z,4.07
2018-03-23T19:15:10.417Z,4.06
2018-03-23T19:17:38.972Z,4.04
2018-03-23T19:20:07.111Z,4.03
2018-03-23T19:22:35.243Z,4.02
2018-03-23T19:25:03.405Z,4.02
2018-03-23T19:27:31.575Z,4.02
2018-03-23T19:29:59.706Z,4.03
2018-03-23T19:32:31.036Z,4.02
2018-03-23T19:35:00.397Z,4.02
2018-03-23T19:37:44.724Z,4.00
2018-03-23T19:40:15.955Z,4.02
2018-03-23T19:42:44.085Z,4.01
2018-03-23T19:45:12.269Z,3.99
2018-03-23T19:47:40.525Z,3.98
2018-03-23T19:50:09.744Z,3.99
2018-03-23T19:52:37.935Z,3.98
2018-03-23T19:55:06.156Z,3.97
2018-03-23T19:57:34.385Z,3.96
2018-03-23T20:00:02.512Z,3.95
2018-03-23T20:02:30.693Z,3.94
2018-03-23T20:04:58.844Z,3.92
2018-03-23T20:07:27.338Z,3.88
2018-03-23T20:09:55.485Z,3.96
2018-03-23T20:12:24.447Z,4.01
2018-03-23T20:14:52.603Z,4.16
2018-03-23T20:17:26.237Z,4.09
2018-03-23T20:19:54.395Z,4.04
2018-03-23T20:22:22.527Z,4.01
2018-03-23T20:24:50.835Z,3.99
2018-03-23T20:27:24.510Z,4.02
2018-03-23T20:29:52.650Z,4.01
2018-03-23T20:32:26.363Z,4.00
2018-03-23T20:34:54.621Z,3.99
2018-03-23T20:37:23.615Z,4.00
2018-03-23T20:39:51.764Z,4.01
2018-03-23T20:42:19.919Z,4.00
2018-03-23T20:44:48.046Z,4.01
2018-03-23T20:47:16.154Z,4.07
2018-03-23T20:49:44.279Z,4.05
2018-03-23T20:52:12.405Z,4.05
2018-03-23T20:54:40.529Z,4.04
2018-03-23T20:57:08.640Z,4.04
2018-03-23T20:59:36.755Z,4.01
2018-03-23T21:02:04.887Z,4.00
2018-03-23T21:04:33.153Z,3.98
2018-03-23T21:07:01.292Z,3.96
2018-03-23T21:09:29.403Z,3.95
2018-03-23T21:11:57.532Z,3.92
2018-03-23T21:14:25.655Z,3.90
2018-03-23T21:16:53.778Z,3.88
2018-03-23T21:19:21.945Z,3.88
2018-03-23T21:21:50.069Z,3.88
2018-03-23T21:24:18.217Z,3.86
2018-03-23T21:26:46.361Z,3.86
2018-03-23T21:29:14.482Z,3.85
2018-03-23T21:31:42.607Z,3.86
2018-03-23T21:34:10.748Z,3.86
2018-03-23T21:36:38.877Z,3.87
2018-03-23T21:39:07.100Z,3.87
2018-03-23T21:41:35.265Z,3.86
2018-03-23T21:44:03.435Z,3.86
2018-03-23T21:46:33.177Z,3.84
2018-03-23T21:49:01.311Z,3.83
2018-03-23T21:51:29.428Z,3.82
2018-03-23T21:53:57.556Z,3.80
2018-03-23T21:56:25.679Z,3.78
2018-03-23T21:58:53.808Z,3.77
2018-03-23T22:01:21.951Z,3.76
2018-03-23T22:03:50.076Z,3.76
2018-03-23T22:06:18.195Z,3.76
2018-03-23T22:08:46.323Z,3.75
2018-03-23T22:11:14.462Z,3.74
2018-03-23T22:13:42.592Z,3.73
2018-03-23T22:16:10.707Z,3.71
2018-03-23T22:18:38.839Z,3.71
2018-03-23T22:21:07.036Z,3.70
2018-03-23T22:23:36.192Z,3.70
2018-03-23T22:26:04.329Z,3.71
2018-03-23T22:28:32.444Z,3.70
2018-03-23T22:31:00.668Z,3.70
2018-03-23T22:33:28.796Z,3.70
2018-03-23T22:35:56.917Z,3.69
2018-03-23T22:38:25.041Z,3.67
2018-03-23T22:40:53.167Z,3.65
2018-03-23T22:43:21.282Z,3.64
2018-03-23T22:45:49.411Z,3.63
2018-03-23T22:48:17.564Z,3.62
2018-03-23T22:50:45.793Z,3.60
2018-03-23T22:53:13.956Z,3.63
2018-03-23T22:55:42.296Z,3.59
2018-03-23T22:58:10.413Z,3.56
2018-03-23T23:00:38.921Z,3.53
2018-03-23T23:03:07.654Z,3.52
2018-03-23T23:05:35.909Z,3.52
2018-03-23T23:08:04.082Z,3.50
2018-03-23T23:10:32.660Z,3.52
2018-03-23T23:13:01.989Z,3.50
2018-03-23T23:15:30.739Z,3.52
2018-03-23T23:18:00.327Z,3.50
2018-03-23T23:20:31.055Z,3.50
2018-03-23T23:22:59.490Z,3.49
2018-03-23T23:25:28.153Z,3.48
2018-03-23T23:27:56.254Z,3.48
2018-03-23T23:30:24.383Z,3.49
2018-03-23T23:32:52.541Z,3.49
2018-03-23T23:35:20.694Z,3.50
2018-03-23T23:37:48.823Z,3.50
2018-03-23T23:40:18.167Z,3.49
2018-03-23T23:42:50.280Z,3.50
2018-03-23T23:45:19.244Z,3.48
2018-03-23T23:47:48.199Z,3.48
2018-03-23T23:50:17.197Z,3.47
2018-03-23T23:52:45.344Z,3.46
2018-03-23T23:55:13.751Z,3.46
2018-03-23T23:57:42.270Z,3.48
